Time;durP1;ratioP1;P1;durP2;ratioP2;P2;SDS_P1;SDS_P2;PMS_P1;PMS_P2;Temp;Humidity;BMP_temperature;BMP_pressure;BME280_temperature;BME280_humidity;BME280_pressure;Samples;Min_cycle;Max_cycle;Signal;HPM_P1;HPM_P2
2021/09/25 00:01:57;;;;;;;30.52;18.55;;;;;;;16.71;79.75;101239.44;4926070;29;20031;-50
2021/09/25 00:04:22;;;;;;;29.02;18.50;;;;;;;16.67;80.12;101238.38;4923139;29;20124;-49
2021/09/25 00:06:48;;;;;;;31.88;18.08;;;;;;;16.72;79.79;101235.66;4922835;29;20442;-53
2021/09/25 00:09:13;;;;;;;34.47;18.27;;;;;;;16.73;79.84;101233.75;4920434;29;20028;-48
2021/09/25 00:11:39;;;;;;;31.50;18.88;;;;;;;16.72;79.83;101245.66;4910920;29;20518;-52
2021/09/25 00:14:05;;;;;;;33.20;17.75;;;;;;;16.76;79.73;101235.91;4923687;29;20114;-48
2021/09/25 00:16:31;;;;;;;28.75;17.73;;;;;;;16.74;80.09;101232.66;4926109;29;20027;-52
2021/09/25 00:18:58;;;;;;;31.75;19.75;;;;;;;16.72;79.67;101230.25;4925118;29;20083;-52
2021/09/25 00:21:25;;;;;;;33.90;18.52;;;;;;;16.76;79.66;101230.50;4923493;29;20036;-49
2021/09/25 00:23:51;;;;;;;29.42;17.02;;;;;;;16.74;79.99;101232.66;4920002;29;20032;-49
2021/09/25 00:26:17;;;;;;;29.52;18.15;;;;;;;16.79;79.60;101221.81;4922602;29;20027;-48
2021/09/25 00:28:42;;;;;;;31.48;18.45;;;;;;;16.77;79.57;101224.81;4923980;29;20034;-49
2021/09/25 00:31:08;;;;;;;28.17;17.23;;;;;;;16.77;79.64;101222.09;4926235;29;20491;-51
2021/09/25 00:33:34;;;;;;;28.08;17.63;;;;;;;16.77;79.67;101230.22;4923848;29;20061;-49
2021/09/25 00:35:59;;;;;;;31.40;19.05;;;;;;;16.74;79.43;101227.25;4924280;29;20494;-52
2021/09/25 00:38:25;;;;;;;29.08;17.73;;;;;;;16.69;79.74;101230.78;4922377;29;20171;-48
2021/09/25 00:40:51;;;;;;;30.30;18.42;;;;;;;16.75;79.62;101228.88;4919012;29;20036;-50
2021/09/25 00:43:16;;;;;;;29.55;16.85;;;;;;;16.79;79.10;101230.75;4925364;29;20035;-51
2021/09/25 00:45:42;;;;;;;28.38;17.55;;;;;;;16.75;79.30;101226.16;4925526;29;20032;-49
2021/09/25 00:48:07;;;;;;;30.55;17.13;;;;;;;16.72;79.28;101227.53;4927289;29;20031;-48
2021/09/25 00:50:33;;;;;;;26.88;16.00;;;;;;;16.72;79.31;101224.84;4925998;29;20462;-51
2021/09/25 00:52:59;;;;;;;26.67;17.27;;;;;;;16.72;79.50;101224.03;4927718;29;20082;-49
2021/09/25 00:55:25;;;;;;;29.27;17.35;;;;;;;16.75;79.33;101228.88;4926744;29;20028;-48
2021/09/25 00:57:59;;;;;;;26.80;15.77;;;;;;;16.77;78.94;101237.53;4927742;29;20510;-51
2021/09/25 01:00:28;;;;;;;28.55;17.00;;;;;;;16.75;79.05;101228.88;4928629;29;20177;-50
2021/09/25 01:02:53;;;;;;;26.30;16.58;;;;;;;16.73;79.22;101228.34;4928822;29;20035;-48
2021/09/25 01:05:20;;;;;;;25.92;16.67;;;;;;;16.80;78.94;101228.84;4927607;29;20038;-48
2021/09/25 01:07:47;;;;;;;27.85;16.92;;;;;;;16.78;78.64;101236.44;4924468;29;20402;-49
2021/09/25 01:10:12;;;;;;;28.70;16.17;;;;;;;16.80;78.61;101236.97;4921667;29;20082;-48
2021/09/25 01:12:38;;;;;;;27.48;16.92;;;;;;;16.74;79.03;101233.47;4922262;29;20454;-52
2021/09/25 01:15:05;;;;;;;24.75;14.38;;;;;;;16.79;78.75;101238.06;4923201;29;20053;-49
2021/09/25 01:17:30;;;;;;;24.10;15.48;;;;;;;16.71;79.04;101239.44;4925974;29;20387;-53
2021/09/25 01:19:56;;;;;;;21.42;14.32;;;;;;;16.71;79.00;101234.03;4928389;29;20028;-49
2021/09/25 01:22:23;;;;;;;24.25;15.80;;;;;;;16.78;78.95;101233.72;4925717;29;20163;-49
2021/09/25 01:24:48;;;;;;;23.80;14.55;;;;;;;16.77;78.79;101232.13;4925578;29;20024;-49
2021/09/25 01:27:14;;;;;;;26.70;15.23;;;;;;;16.84;78.53;101238.03;4924221;29;20032;-50
2021/09/25 01:29:40;;;;;;;25.40;15.50;;;;;;;16.78;79.01;101234.53;4925066;29;20036;-49
2021/09/25 01:32:06;;;;;;;25.45;16.52;;;;;;;16.67;79.25;101254.59;4927957;29;20119;-48
2021/09/25 01:34:32;;;;;;;25.00;14.68;;;;;;;16.68;79.50;101247.28;4922812;29;20024;-50
2021/09/25 01:36:57;;;;;;;23.98;15.10;;;;;;;16.65;79.26;101251.31;4925273;29;20032;-49
2021/09/25 01:39:23;;;;;;;23.77;15.50;;;;;;;16.70;79.26;101250.56;4924164;29;20038;-49
2021/09/25 01:41:49;;;;;;;23.35;14.90;;;;;;;16.69;79.07;101252.41;4922265;29;20407;-49
2021/09/25 01:44:14;;;;;;;22.83;14.13;;;;;;;16.73;78.98;101242.69;4924885;29;20360;-49
2021/09/25 01:46:40;;;;;;;22.77;14.98;;;;;;;16.67;79.19;101251.09;4923465;29;20027;-48
2021/09/25 01:49:06;;;;;;;21.17;14.20;;;;;;;16.73;78.77;101247.28;4928038;29;20502;-49
2021/09/25 01:51:31;;;;;;;23.08;14.52;;;;;;;16.72;79.10;101245.66;4926631;29;20097;-49
2021/09/25 01:53:57;;;;;;;26.33;13.48;;;;;;;16.75;78.98;101239.69;4923127;29;20804;-48
2021/09/25 01:56:23;;;;;;;22.02;13.40;;;;;;;16.77;78.76;101242.94;4921801;29;20035;-48
2021/09/25 01:58:48;;;;;;;25.10;13.95;;;;;;;16.69;79.15;101246.19;4922188;29;20028;-48
2021/09/25 02:01:14;;;;;;;21.05;14.02;;;;;;;16.72;79.11;101246.47;4928812;29;20031;-50
2021/09/25 02:03:39;;;;;;;20.15;13.65;;;;;;;16.69;79.04;101263.25;4923757;29;20024;-48
2021/09/25 02:06:10;;;;;;;22.58;13.88;;;;;;;16.74;78.75;101255.13;4911451;29;20024;-49
2021/09/25 02:08:37;;;;;;;21.38;13.85;;;;;;;16.73;78.86;101258.91;4921713;29;20517;-50
2021/09/25 02:11:04;;;;;;;23.50;15.25;;;;;;;16.66;80.29;101262.97;4923967;29;20059;-49
2021/09/25 02:13:30;;;;;;;23.60;15.05;;;;;;;16.48;82.25;101257.06;4921419;29;20024;-48
2021/09/25 02:15:56;;;;;;;27.10;16.15;;;;;;;16.36;83.25;101259.28;4927706;29;20244;-49
2021/09/25 02:18:22;;;;;;;22.67;15.25;;;;;;;16.40;83.10;101260.34;4946408;23;20757;-56
2021/09/25 02:20:48;;;;;;;24.27;15.48;;;;;;;16.36;82.62;101259.28;4939846;29;20102;-57
2021/09/25 02:23:13;;;;;;;22.83;14.75;;;;;;;16.42;82.43;101262.78;4938657;29;20807;-57
2021/09/25 02:25:39;;;;;;;22.15;15.27;;;;;;;16.51;81.67;101256.50;4937694;29;20023;-57
2021/09/25 02:28:05;;;;;;;23.52;15.02;;;;;;;16.51;81.38;101264.63;4938334;28;20031;-56
2021/09/25 02:30:31;;;;;;;23.15;15.25;;;;;;;16.40;83.09;101262.22;4939831;29;20059;-57
2021/09/25 02:32:56;;;;;;;29.98;15.73;;;;;;;16.21;84.49;101262.00;4939592;29;20036;-57
2021/09/25 02:35:23;;;;;;;22.52;15.23;;;;;;;16.11;85.32;101267.41;4943918;28;20023;-57
2021/09/25 02:37:49;;;;;;;22.65;14.93;;;;;;;16.11;85.36;101270.94;4941942;28;20031;-57
2021/09/25 02:40:16;;;;;;;23.88;15.00;;;;;;;16.13;85.18;101281.47;4938765;29;20113;-57
2021/09/25 02:42:44;;;;;;;24.02;15.15;;;;;;;16.21;84.82;101273.63;4936517;29;20043;-57
2021/09/25 02:45:10;;;;;;;22.50;14.68;;;;;;;16.23;84.86;101284.16;4936683;29;20035;-57
2021/09/25 02:47:36;;;;;;;24.35;15.52;;;;;;;16.24;84.47;101273.06;4938631;29;20043;-57
2021/09/25 02:50:03;;;;;;;25.08;15.55;;;;;;;16.19;85.15;101285.81;4941587;29;20516;-57
2021/09/25 02:52:28;;;;;;;24.17;14.98;;;;;;;16.20;85.09;101287.41;4941751;29;20035;-55
2021/09/25 02:54:54;;;;;;;25.67;15.40;;;;;;;16.14;85.91;101296.59;4937322;29;20035;-56
2021/09/25 02:57:20;;;;;;;27.02;15.45;;;;;;;16.14;86.34;101302.00;4937747;29;20479;-57
2021/09/25 02:59:45;;;;;;;26.33;15.95;;;;;;;16.15;86.50;101295.50;4938715;29;20500;-54
2021/09/25 03:02:10;;;;;;;24.80;15.60;;;;;;;16.15;86.04;101290.09;4938343;29;20038;-56
2021/09/25 03:04:36;;;;;;;23.67;16.25;;;;;;;16.18;85.91;101281.47;4941462;29;20485;-57
2021/09/25 03:07:02;;;;;;;28.60;17.15;;;;;;;16.11;86.09;101291.75;4941727;28;20593;-54
2021/09/25 03:09:27;;;;;;;27.30;15.75;;;;;;;16.07;86.33;101277.97;4940079;29;20023;-57
2021/09/25 03:11:53;;;;;;;23.80;15.93;;;;;;;16.12;86.06;101287.94;4934158;29;20586;-54
2021/09/25 03:14:18;;;;;;;23.50;15.43;;;;;;;16.08;86.58;101284.19;4935174;29;20027;-54
2021/09/25 03:16:44;;;;;;;28.67;16.25;;;;;;;16.04;86.92;101288.50;4937466;29;20033;-54
2021/09/25 03:19:09;;;;;;;25.98;16.35;;;;;;;15.97;87.32;101288.75;4937097;29;20023;-54
2021/09/25 03:21:35;;;;;;;27.55;16.27;;;;;;;15.98;87.43;101288.53;4934571;29;20038;-54
2021/09/25 03:24:00;;;;;;;26.52;15.63;;;;;;;15.94;87.57;101295.53;4935766;29;20056;-52
2021/09/25 03:26:26;;;;;;;28.05;16.27;;;;;;;15.95;87.37;101299.03;4932468;28;20058;-52
2021/09/25 03:28:51;;;;;;;21.10;14.63;;;;;;;15.87;87.94;101303.09;4935284;28;20470;-52
2021/09/25 03:31:17;;;;;;;27.48;16.25;;;;;;;15.83;88.23;101304.72;4933392;29;20037;-53
2021/09/25 03:33:42;;;;;;;23.70;15.32;;;;;;;15.92;87.78;101308.50;4935543;29;20027;-54
2021/09/25 03:36:08;;;;;;;24.95;16.02;;;;;;;15.92;87.81;101307.69;4932167;29;20458;-53
2021/09/25 03:38:33;;;;;;;27.75;16.73;;;;;;;15.87;88.16;101311.22;4934562;29;20043;-54
2021/09/25 03:41:00;;;;;;;26.58;15.90;;;;;;;15.94;87.68;101316.34;4931989;29;20027;-54
2021/09/25 03:43:26;;;;;;;24.52;15.80;;;;;;;15.91;87.86;101311.47;4934669;29;20031;-53
2021/09/25 03:45:52;;;;;;;21.52;14.82;;;;;;;15.94;87.83;101317.16;4934181;29;20036;-54
2021/09/25 03:48:17;;;;;;;24.10;15.77;;;;;;;15.83;88.80;101312.84;4934329;28;20032;-54
2021/09/25 03:50:43;;;;;;;25.27;16.10;;;;;;;15.83;89.21;101312.03;4935161;29;20558;-54
2021/09/25 03:53:09;;;;;;;24.80;15.55;;;;;;;15.97;88.08;101310.38;4935626;29;20110;-54
2021/09/25 03:55:35;;;;;;;26.92;16.20;;;;;;;15.93;88.64;101312.00;4935995;29;20027;-55
2021/09/25 03:58:00;;;;;;;24.90;15.48;;;;;;;16.04;87.95;101315.53;4936493;28;20046;-52
2021/09/25 04:00:26;;;;;;;24.60;15.85;;;;;;;16.00;88.67;101320.69;4936367;28;20023;-52
2021/09/25 04:02:52;;;;;;;23.00;14.57;;;;;;;16.04;88.46;101331.75;4935961;28;20054;-54
2021/09/25 04:05:19;;;;;;;25.63;15.82;;;;;;;15.95;89.21;101331.47;4938813;29;20028;-54
2021/09/25 04:07:45;;;;;;;25.92;16.05;;;;;;;16.02;88.73;101327.44;4936196;28;21369;-54
2021/09/25 04:10:11;;;;;;;26.17;16.33;;;;;;;15.91;89.55;101315.00;4931455;29;20383;-54
2021/09/25 04:12:39;;;;;;;22.85;15.55;;;;;;;15.92;89.73;101318.50;4938458;28;20019;-54
2021/09/25 04:15:05;;;;;;;26.55;15.60;;;;;;;15.84;90.56;101316.34;4933216;29;20034;-52
2021/09/25 04:17:31;;;;;;;21.27;15.05;;;;;;;15.87;89.82;101322.03;4939109;28;20028;-54
2021/09/25 04:19:56;;;;;;;24.08;15.90;;;;;;;15.87;89.66;101327.41;4936766;29;20032;-54
2021/09/25 04:22:22;;;;;;;23.83;15.75;;;;;;;15.88;90.03;101331.75;4937612;29;20031;-55
2021/09/25 04:24:47;;;;;;;26.75;15.43;;;;;;;15.87;90.37;101327.41;4936315;29;20553;-54
2021/09/25 04:27:13;;;;;;;25.20;15.48;;;;;;;15.91;89.88;101333.91;4937293;28;20046;-55
2021/09/25 04:29:38;;;;;;;25.17;15.23;;;;;;;15.91;90.00;101331.19;4937835;29;20027;-54
2021/09/25 04:32:04;;;;;;;30.05;16.52;;;;;;;15.90;90.12;101336.88;4938288;29;20038;-52
2021/09/25 04:34:31;;;;;;;25.38;17.13;;;;;;;15.89;90.16;101333.38;4936961;29;20435;-54
2021/09/25 04:36:57;;;;;;;29.42;16.48;;;;;;;15.87;90.42;101332.81;4939446;28;20028;-54
2021/09/25 04:39:24;;;;;;;27.08;16.33;;;;;;;15.89;90.13;101327.97;4937596;29;20035;-53
2021/09/25 04:41:50;;;;;;;25.52;17.17;;;;;;;15.71;91.22;101336.59;4937421;29;20043;-55
2021/09/25 04:44:16;;;;;;;26.17;17.30;;;;;;;15.70;91.35;101326.84;4937517;29;20067;-54
2021/09/25 04:46:42;;;;;;;26.38;16.65;;;;;;;15.69;91.46;101322.53;4937259;28;20118;-54
2021/09/25 04:49:09;;;;;;;25.95;16.13;;;;;;;15.64;91.59;101336.84;4937387;29;20031;-53
2021/09/25 04:51:35;;;;;;;28.13;18.15;;;;;;;15.64;91.75;101333.34;4937750;29;20056;-54
2021/09/25 04:54:03;;;;;;;26.52;16.67;;;;;;;15.69;91.56;101336.03;4935207;29;20027;-55
2021/09/25 04:56:29;;;;;;;22.73;15.85;;;;;;;15.73;91.42;101334.44;4938882;29;20039;-54
2021/09/25 04:58:54;;;;;;;25.77;16.90;;;;;;;15.72;91.52;101335.50;4939730;28;20389;-54
2021/09/25 05:01:20;;;;;;;23.70;15.65;;;;;;;15.76;91.28;101343.88;4936664;29;20081;-55
2021/09/25 05:03:45;;;;;;;25.25;16.02;;;;;;;15.71;91.72;101339.28;4936828;29;20030;-54
2021/09/25 05:06:11;;;;;;;30.90;16.45;;;;;;;15.69;91.77;101346.84;4935905;29;20029;-54
2021/09/25 05:08:36;;;;;;;25.00;16.35;;;;;;;15.78;91.16;101336.31;4941148;28;20152;-54
2021/09/25 05:11:02;;;;;;;27.13;15.75;;;;;;;15.79;91.17;101346.84;4936934;29;20489;-52
2021/09/25 05:13:28;;;;;;;26.15;16.70;;;;;;;15.75;91.30;101345.78;4935454;28;20465;-54
2021/09/25 05:15:53;;;;;;;24.35;15.38;;;;;;;15.81;91.03;101344.72;4936024;29;20027;-54
2021/09/25 05:18:19;;;;;;;25.75;15.90;;;;;;;15.81;91.14;101355.53;4940350;28;20027;-54
2021/09/25 05:20:44;;;;;;;24.55;16.05;;;;;;;15.87;90.61;101349.03;4936998;29;20027;-54
2021/09/25 05:23:10;;;;;;;27.42;16.08;;;;;;;15.82;91.12;101351.75;4935724;29;20034;-55
2021/09/25 05:25:36;;;;;;;22.92;15.07;;;;;;;15.83;91.16;101353.38;4937826;29;20032;-51
2021/09/25 05:28:01;;;;;;;23.40;15.63;;;;;;;15.90;90.80;101351.19;4941033;28;20312;-53
2021/09/25 05:30:29;;;;;;;23.65;15.63;;;;;;;15.90;90.73;101350.38;4937138;28;20059;-54
2021/09/25 05:32:55;;;;;;;26.20;15.45;;;;;;;16.02;89.80;101350.94;4937306;29;20036;-55
2021/09/25 05:35:20;;;;;;;27.70;15.88;;;;;;;15.95;90.03;101362.00;4939241;29;20151;-54
2021/09/25 05:37:46;;;;;;;28.85;16.25;;;;;;;15.92;90.77;101359.03;4938664;28;20046;-53
2021/09/25 05:40:13;;;;;;;27.55;16.80;;;;;;;15.99;90.07;101356.91;4935415;29;20039;-51
2021/09/25 05:42:38;;;;;;;27.70;16.38;;;;;;;16.07;89.56;101358.25;4936756;29;20474;-51
2021/09/25 05:45:04;;;;;;;24.67;16.73;;;;;;;16.03;89.85;101352.56;4937428;29;20035;-54
2021/09/25 05:47:29;;;;;;;25.17;16.27;;;;;;;16.06;89.80;101349.31;4937661;28;20151;-54
2021/09/25 05:49:55;;;;;;;25.00;16.48;;;;;;;16.00;90.07;101351.22;4937817;29;20023;-54
2021/09/25 05:52:21;;;;;;;24.50;15.52;;;;;;;16.08;89.63;101354.47;4937202;29;20466;-54
2021/09/25 05:54:46;;;;;;;26.95;16.35;;;;;;;16.12;89.26;101355.53;4935088;29;20031;-54
2021/09/25 05:57:12;;;;;;;26.63;16.85;;;;;;;16.18;88.65;101354.47;4937106;29;20100;-54
2021/09/25 05:59:37;;;;;;;27.45;17.27;;;;;;;16.21;88.12;101354.75;4935763;29;20023;-52
2021/09/25 06:02:04;;;;;;;27.80;16.50;;;;;;;16.14;88.92;101358.78;4936194;29;20083;-54
2021/09/25 06:04:31;;;;;;;29.30;17.42;;;;;;;16.16;89.22;101370.97;4937082;29;20043;-54
2021/09/25 06:06:57;;;;;;;27.88;16.55;;;;;;;16.15;88.96;101379.31;4940028;29;20031;-53
2021/09/25 06:09:23;;;;;;;29.40;16.58;;;;;;;16.15;89.38;101372.03;4938378;29;20050;-52
2021/09/25 06:11:51;;;;;;;24.42;17.00;;;;;;;16.20;89.40;101382.03;4939897;29;20552;-54
2021/09/25 06:14:17;;;;;;;27.70;16.23;;;;;;;16.21;88.82;101378.25;4942065;29;20539;-52
2021/09/25 06:16:42;;;;;;;28.95;17.85;;;;;;;16.24;88.93;101373.13;4942828;29;20577;-51
2021/09/25 06:19:08;;;;;;;23.92;16.48;;;;;;;16.28;88.61;101382.31;4937537;29;20537;-54
2021/09/25 06:21:33;;;;;;;25.20;16.30;;;;;;;16.25;88.45;101384.75;4940012;29;20055;-51
2021/09/25 06:23:59;;;;;;;26.08;15.95;;;;;;;16.38;88.09;101386.91;4924043;29;20046;-54
2021/09/25 06:26:24;;;;;;;25.77;15.88;;;;;;;16.36;87.94;101391.78;4934732;29;20023;-52
2021/09/25 06:28:50;;;;;;;28.10;16.48;;;;;;;16.43;87.69;101389.59;4937896;28;21424;-54
2021/09/25 06:31:18;;;;;;;22.70;17.00;;;;;;;16.47;87.99;101384.47;4936354;28;20131;-55
2021/09/25 06:33:44;;;;;;;25.70;16.15;;;;;;;16.57;87.19;101395.28;4930925;28;20034;-53
2021/09/25 06:36:10;;;;;;;32.65;18.05;;;;;;;16.40;87.75;101395.56;4939140;28;20378;-54
2021/09/25 06:38:36;;;;;;;24.80;15.55;;;;;;;16.46;87.37;101380.94;4939415;28;20034;-54
2021/09/25 06:41:01;;;;;;;26.80;17.45;;;;;;;16.41;87.97;101397.19;4935627;28;20043;-55
2021/09/25 06:43:27;;;;;;;24.40;15.63;;;;;;;16.56;87.43;101399.06;4925240;29;20030;-52
2021/09/25 06:45:52;;;;;;;21.80;15.07;;;;;;;16.60;87.09;101400.16;4936679;29;20039;-54
2021/09/25 06:48:18;;;;;;;23.92;15.55;;;;;;;16.65;86.69;101407.44;4937464;29;20035;-52
2021/09/25 06:50:43;;;;;;;24.83;15.40;;;;;;;16.71;86.55;101398.28;4940439;28;20453;-52
2021/09/25 06:53:09;;;;;;;23.58;13.98;;;;;;;16.71;86.20;101409.09;4936432;28;20154;-54
2021/09/25 06:55:34;;;;;;;20.50;14.45;;;;;;;16.78;85.99;101406.91;4940983;28;20023;-52
2021/09/25 06:58:00;;;;;;;23.33;15.45;;;;;;;16.85;85.33;101413.66;4937378;28;20028;-54
2021/09/25 07:00:25;;;;;;;21.38;14.60;;;;;;;16.92;84.75;101410.69;4939377;29;20190;-54
2021/09/25 07:02:50;;;;;;;21.65;14.77;;;;;;;16.85;85.18;101404.72;4936503;28;20036;-54
2021/09/25 07:05:16;;;;;;;20.55;13.70;;;;;;;16.86;85.16;101417.16;4938765;29;20032;-54
2021/09/25 07:07:42;;;;;;;23.10;14.60;;;;;;;16.87;85.03;101413.38;4935747;28;20035;-54
2021/09/25 07:10:08;;;;;;;22.75;14.18;;;;;;;16.88;84.93;101418.56;4936729;29;20452;-54
2021/09/25 07:12:34;;;;;;;18.85;12.38;;;;;;;17.03;84.27;101416.88;4935126;28;20047;-54
2021/09/25 07:14:59;;;;;;;21.95;13.45;;;;;;;17.09;83.82;101408.47;4937165;28;20051;-55
2021/09/25 07:17:25;;;;;;;23.33;12.13;;;;;;;17.17;83.68;101407.91;4939118;28;20043;-54
2021/09/25 07:19:51;;;;;;;19.95;12.50;;;;;;;17.24;83.62;101409.53;4934051;28;20027;-55
2021/09/25 07:22:17;;;;;;;20.63;11.77;;;;;;;17.31;83.29;101412.72;4931730;29;20621;-55
2021/09/25 07:24:42;;;;;;;17.85;12.32;;;;;;;17.35;82.90;101413.78;4930340;29;20047;-54
2021/09/25 07:27:08;;;;;;;18.42;11.60;;;;;;;17.42;82.79;101427.88;4930356;29;21507;-54
2021/09/25 07:29:33;;;;;;;20.90;11.27;;;;;;;17.39;82.16;101429.22;4933966;28;20138;-55
2021/09/25 07:31:59;;;;;;;14.85;10.55;;;;;;;17.31;83.08;101427.09;4938798;28;20114;-55
2021/09/25 07:34:26;;;;;;;18.38;12.00;;;;;;;17.21;83.04;101446.06;4936012;28;20047;-54
2021/09/25 07:36:52;;;;;;;20.58;11.27;;;;;;;17.13;83.69;101457.47;4924771;29;20160;-55
2021/09/25 07:39:17;;;;;;;15.73;10.85;;;;;;;17.21;83.16;101454.19;4936854;28;20034;-54
2021/09/25 07:41:43;;;;;;;19.45;11.60;;;;;;;17.13;83.65;101463.69;4922685;28;20038;-54
2021/09/25 07:44:08;;;;;;;18.20;10.93;;;;;;;17.06;83.54;101463.19;4932963;29;20430;-55
2021/09/25 07:46:34;;;;;;;17.95;11.75;;;;;;;17.07;83.82;101462.09;4937520;28;20030;-55
2021/09/25 07:48:59;;;;;;;16.02;10.68;;;;;;;17.14;83.67;101469.91;4935813;29;20023;-55
2021/09/25 07:51:28;;;;;;;16.73;10.43;;;;;;;17.16;83.71;101462.31;4923292;29;20335;-54
2021/09/25 07:53:55;;;;;;;14.93;10.05;;;;;;;17.14;83.49;101465.31;4926836;29;20028;-54
2021/09/25 07:56:21;;;;;;;17.55;10.40;;;;;;;17.28;83.53;101470.16;4937305;29;20058;-54
2021/09/25 07:58:47;;;;;;;15.32;10.40;;;;;;;17.25;83.61;101478.84;4937205;28;20311;-54
2021/09/25 08:01:13;;;;;;;15.40;10.55;;;;;;;17.17;83.90;101481.00;4938925;28;20076;-54
2021/09/25 08:03:38;;;;;;;15.60;9.43;;;;;;;17.18;84.19;101485.34;4941205;28;20054;-54
2021/09/25 08:06:04;;;;;;;15.45;10.40;;;;;;;17.32;83.49;101488.28;4931570;29;20031;-54
2021/09/25 08:08:30;;;;;;;14.18;10.02;;;;;;;17.41;83.22;101486.63;4941536;28;20500;-55
2021/09/25 08:10:55;;;;;;;13.75;9.23;;;;;;;17.52;82.57;101488.22;4937633;29;20039;-54
2021/09/25 08:13:21;;;;;;;15.40;9.63;;;;;;;17.52;82.11;101492.84;4937814;29;20483;-55
2021/09/25 08:15:49;;;;;;;12.95;9.65;;;;;;;17.45;82.77;101487.72;4935872;29;20103;-55
2021/09/25 08:18:15;;;;;;;15.07;9.60;;;;;;;17.45;82.51;101492.31;4937517;23;20048;-52
2021/09/25 08:20:41;;;;;;;14.57;9.68;;;;;;;17.25;82.84;101492.38;4923805;29;20124;-54
2021/09/25 08:23:06;;;;;;;15.55;9.52;;;;;;;17.28;82.97;101491.84;4926737;29;20028;-55
2021/09/25 08:25:32;;;;;;;17.90;9.63;;;;;;;17.34;82.90;101496.13;4924837;29;20383;-55
2021/09/25 08:27:57;;;;;;;13.82;9.18;;;;;;;17.28;83.53;101491.84;4926860;29;20088;-54
2021/09/25 08:30:25;;;;;;;12.55;8.60;;;;;;;17.33;83.10;101506.16;4926343;29;20674;-54
2021/09/25 08:32:52;;;;;;;12.68;9.40;;;;;;;17.29;83.27;101505.09;4921018;29;20122;-54
2021/09/25 08:35:17;;;;;;;14.65;9.18;;;;;;;17.30;83.38;101501.31;4922768;29;20364;-54
2021/09/25 08:37:43;;;;;;;14.40;9.90;;;;;;;17.17;83.83;101513.50;4924261;29;20031;-54
2021/09/25 08:40:12;;;;;;;18.52;10.32;;;;;;;17.20;83.42;101512.13;4921797;29;21533;-53
2021/09/25 08:42:38;;;;;;;14.70;8.65;;;;;;;17.21;83.68;101520.00;4923414;29;20024;-55
2021/09/25 08:45:05;;;;;;;13.15;8.85;;;;;;;17.17;83.71;101518.91;4924810;29;20020;-56
2021/09/25 08:47:31;;;;;;;15.63;9.88;;;;;;;17.15;84.29;101518.38;4921705;29;20035;-56
2021/09/25 08:49:56;;;;;;;14.90;8.68;;;;;;;17.18;84.05;101520.53;4920848;29;20228;-52
2021/09/25 08:52:22;;;;;;;15.00;9.05;;;;;;;17.19;84.15;101533.00;4924702;29;20050;-56
2021/09/25 08:54:47;;;;;;;15.23;10.20;;;;;;;17.09;84.84;101524.91;4924226;29;20043;-54
2021/09/25 08:57:13;;;;;;;16.67;10.40;;;;;;;17.04;85.45;101533.00;4925590;29;20031;-52
2021/09/25 08:59:38;;;;;;;15.18;9.50;;;;;;;17.11;84.85;101528.13;4923639;29;20031;-55
2021/09/25 09:02:11;;;;;;;14.63;9.57;;;;;;;17.11;84.98;101528.13;4921477;29;20508;-54
2021/09/25 09:04:45;;;;;;;16.13;8.82;;;;;;;17.11;84.88;101528.13;4923038;29;20024;-54
2021/09/25 09:07:26;;;;;;;13.75;9.57;;;;;;;17.08;86.13;101519.75;4927355;29;20513;-54
2021/09/25 09:09:52;;;;;;;18.15;9.65;;;;;;;16.94;87.38;101529.50;4929398;29;20044;-54
2021/09/25 09:12:26;;;;;;;16.30;8.90;;;;;;;16.77;88.00;101536.00;4926936;29;20390;-54
2021/09/25 09:14:52;;;;;;;15.38;9.93;;;;;;;16.83;87.84;101536.81;4927353;29;20047;-54
2021/09/25 09:17:28;;;;;;;16.77;10.73;;;;;;;16.81;87.96;101539.78;4927843;29;20261;-51
2021/09/25 09:19:54;;;;;;;13.23;9.85;;;;;;;16.69;89.97;101557.34;4921578;29;20607;-53
2021/09/25 09:22:21;;;;;;;14.38;10.38;;;;;;;16.54;91.70;101545.44;4926415;29;20038;-53
2021/09/25 09:24:54;;;;;;;16.92;11.23;;;;;;;16.29;95.09;101556.16;4929750;29;20020;-54
2021/09/25 09:27:24;;;;;;;17.15;12.48;;;;;;;16.22;96.87;101564.53;4926475;29;20111;-55
2021/09/25 09:30:09;;;;;;;20.08;12.55;;;;;;;16.33;97.87;101557.25;4927065;29;20028;-56
2021/09/25 09:32:45;;;;;;;19.90;12.35;;;;;;;16.33;98.38;101558.06;4925530;29;20034;-55
2021/09/25 09:35:20;;;;;;;16.52;10.75;;;;;;;16.38;97.35;101562.69;4924913;29;20406;-54
2021/09/25 09:37:46;;;;;;;15.23;10.50;;;;;;;16.49;96.39;101555.41;4926572;29;20046;-55
2021/09/25 09:40:12;;;;;;;14.73;9.77;;;;;;;16.65;95.95;101557.06;4922162;29;20047;-55
2021/09/25 09:42:48;;;;;;;17.48;9.93;;;;;;;16.80;94.80;101559.81;4925480;29;20027;-54
2021/09/25 09:45:26;;;;;;;14.88;9.55;;;;;;;17.04;92.28;101551.16;4927432;29;20145;-54
2021/09/25 09:47:51;;;;;;;11.20;8.73;;;;;;;17.36;90.54;101556.25;4923878;29;20079;-54
2021/09/25 09:50:19;;;;;;;11.52;8.77;;;;;;;17.51;89.35;101554.34;4925249;29;20063;-55
2021/09/25 09:52:45;;;;;;;9.52;7.10;;;;;;;17.74;86.98;101554.84;4922168;29;20032;-54
2021/09/25 09:55:21;;;;;;;12.02;8.10;;;;;;;17.83;86.61;101563.22;4925505;29;20031;-54
2021/09/25 09:57:59;;;;;;;11.85;7.43;;;;;;;17.81;86.62;101556.19;4924985;29;20508;-54
2021/09/25 10:00:24;;;;;;;9.60;6.78;;;;;;;17.80;86.12;101559.19;4927363;29;20042;-54
2021/09/25 10:02:50;;;;;;;8.57;6.72;;;;;;;17.68;85.21;101567.59;4925975;29;21441;-55
2021/09/25 10:05:16;;;;;;;9.57;7.28;;;;;;;17.76;85.92;101575.16;4906464;29;20108;-55
2021/09/25 10:07:43;;;;;;;10.38;6.93;;;;;;;17.62;85.74;101568.69;4927212;29;20053;-54
2021/09/25 10:10:08;;;;;;;13.30;7.25;;;;;;;17.56;87.07;101569.75;4925254;29;20030;-55
2021/09/25 10:12:34;;;;;;;11.13;7.40;;;;;;;17.46;86.99;101567.09;4926605;29;20035;-52
2021/09/25 10:15:01;;;;;;;10.52;6.78;;;;;;;17.66;86.11;101575.16;4925669;29;20023;-54
2021/09/25 10:17:26;;;;;;;9.35;7.18;;;;;;;17.86;85.04;101576.22;4923907;29;20042;-53
2021/09/25 10:19:52;;;;;;;11.32;6.60;;;;;;;17.91;83.85;101576.19;4920080;29;20385;-54
2021/09/25 10:22:24;;;;;;;9.50;6.10;;;;;;;18.13;83.96;101573.94;4926420;29;20027;-54
2021/09/25 10:25:01;;;;;;;8.38;6.45;;;;;;;17.98;83.66;101582.97;4927428;29;20454;-55
2021/09/25 10:27:35;;;;;;;9.35;6.72;;;;;;;17.98;83.00;101588.38;4925770;29;20032;-55
2021/09/25 10:30:04;;;;;;;10.77;7.55;;;;;;;18.17;81.94;101596.72;4925024;29;20027;-52
2021/09/25 10:32:53;;;;;;;9.15;6.45;;;;;;;18.24;81.87;101591.78;4924899;29;20034;-54
2021/09/25 10:35:25;;;;;;;8.52;5.95;;;;;;;18.15;81.18;101588.03;4923747;29;20035;-54
2021/09/25 10:37:55;;;;;;;10.10;6.03;;;;;;;18.36;80.63;101592.28;4924568;29;20040;-54
2021/09/25 10:40:30;;;;;;;8.38;5.88;;;;;;;18.76;79.53;101581.47;4925359;29;20028;-51
2021/09/25 10:43:17;;;;;;;8.45;5.65;;;;;;;18.90;78.32;101577.84;4924335;29;20027;-51
2021/09/25 10:45:44;;;;;;;8.48;5.97;;;;;;;19.10;77.57;101584.19;4925685;29;20059;-55
2021/09/25 10:48:15;;;;;;;8.88;6.10;;;;;;;19.14;75.67;101587.97;4926086;29;20050;-54
2021/09/25 10:50:49;;;;;;;8.75;6.20;;;;;;;19.19;75.27;101590.63;4928842;29;20042;-53
2021/09/25 10:53:21;;;;;;;6.93;5.70;;;;;;;19.25;75.97;101584.06;4925975;29;20114;-54
2021/09/25 10:55:50;;;;;;;7.43;6.35;;;;;;;19.28;75.88;101584.31;4924942;29;20024;-54
2021/09/25 10:58:20;;;;;;;10.15;8.30;;;;;;;19.77;74.69;101585.19;4926892;28;20098;-54
2021/09/25 11:00:47;;;;;;;7.63;5.47;;;;;;;20.12;73.06;101578.53;4927634;29;20031;-52
2021/09/25 11:03:41;;;;;;;8.68;6.20;;;;;;;19.91;71.76;101581.47;4927210;29;20035;-53
2021/09/25 11:06:10;;;;;;;7.88;5.25;;;;;;;19.90;69.25;101582.56;4923823;29;20126;-54
2021/09/25 11:08:38;;;;;;;6.68;4.30;;;;;;;19.92;70.87;101585.81;4922193;29;20027;-55
2021/09/25 11:11:09;;;;;;;7.65;4.75;;;;;;;19.97;71.38;101600.47;4919438;29;20024;-54